Time;durP1;ratioP1;P1;durP2;ratioP2;P2;SDS_P1;SDS_P2;PMS_P1;PMS_P2;Temp;Humidity;BMP_temperature;BMP_pressure;BME280_temperature;BME280_humidity;BME280_pressure;Samples;Min_cycle;Max_cycle;Signal;HPM_P1;HPM_P2
2022/12/30 00:00:33;;;;;;;13.82;5.15;;;7.10;89.90;;;;;;5030577;28;20026;-50
2022/12/30 00:03:03;;;;;;;13.18;3.53;;;7.10;89.70;;;;;;5016346;28;20054;-48
2022/12/30 00:05:28;;;;;;;16.98;3.75;;;7.10;89.90;;;;;;5032814;28;20049;-48
2022/12/30 00:07:55;;;;;;;16.15;3.70;;;7.10;90.00;;;;;;5033548;28;20037;-51
2022/12/30 00:10:22;;;;;;;13.57;3.75;;;7.10;90.20;;;;;;5027893;28;20494;-49
2022/12/30 00:35:01;;;;;;;20.55;3.72;;;6.80;90.10;;;;;;5032866;28;20359;-51
2022/12/30 00:37:28;;;;;;;20.60;3.88;;;6.70;90.20;;;;;;5030459;28;20033;-51
2022/12/30 00:39:55;;;;;;;10.98;3.35;;;6.70;90.30;;;;;;5031502;28;20029;-50
2022/12/30 00:45:07;;;;;;;16.40;4.07;;;6.60;90.40;;;;;;5032330;28;20156;-51
2022/12/30 00:47:34;;;;;;;17.40;4.00;;;6.60;90.50;;;;;;5032658;28;20033;-46
2022/12/30 00:58:17;;;;;;;17.63;4.50;;;6.50;90.70;;;;;;5032427;28;20078;-50
2022/12/30 01:00:43;;;;;;;17.92;4.40;;;6.40;90.80;;;;;;5030003;28;20022;-47
2022/12/30 01:03:10;;;;;;;18.45;3.70;;;6.40;90.90;;;;;;5012970;28;20028;-50
2022/12/30 01:05:43;;;;;;;20.33;5.07;;;6.30;90.90;;;;;;5047415;28;20044;-47
2022/12/30 01:08:10;;;;;;;23.58;6.63;;;6.40;90.90;;;;;;5046326;28;20029;-50
2022/12/30 01:10:40;;;;;;;17.30;5.45;;;6.30;90.90;;;;;;5026954;28;20436;-49
2022/12/30 01:13:08;;;;;;;20.25;4.47;;;6.30;90.90;;;;;;5013184;28;20030;-46
2022/12/30 01:15:35;;;;;;;12.82;3.30;;;6.20;91.00;;;;;;5031960;28;20033;-49
2022/12/30 01:18:02;;;;;;;20.35;4.53;;;6.20;91.10;;;;;;5031523;28;20033;-51
2022/12/30 01:20:29;;;;;;;28.55;5.38;;;6.20;91.10;;;;;;5031285;28;20585;-49
2022/12/30 01:22:56;;;;;;;19.05;4.32;;;6.20;91.10;;;;;;5031946;28;20029;-47
2022/12/30 01:25:23;;;;;;;13.82;3.28;;;6.20;91.20;;;;;;5030302;28;20021;-50
2022/12/30 01:27:53;;;;;;;22.30;4.75;;;6.20;91.10;;;;;;5018525;28;20443;-49
2022/12/30 01:30:19;;;;;;;20.42;4.25;;;6.20;91.10;;;;;;5031353;28;20026;-49
2022/12/30 01:32:46;;;;;;;19.52;4.32;;;6.20;91.10;;;;;;5035170;28;20094;-50
2022/12/30 01:35:13;;;;;;;15.85;3.90;;;6.10;91.10;;;;;;5052168;28;20052;-46
2022/12/30 01:37:40;;;;;;;18.55;4.95;;;6.00;91.10;;;;;;5054656;28;20362;-53
2022/12/30 01:40:10;;;;;;;18.92;4.15;;;6.00;91.30;;;;;;5034481;28;20037;-47
2022/12/30 01:42:39;;;;;;;20.58;4.47;;;6.00;91.30;;;;;;5035065;28;20104;-52
2022/12/30 01:45:25;;;;;;;17.13;4.53;;;6.00;91.40;;;;;;5036210;28;20033;-47
2022/12/30 01:48:21;;;;;;;14.20;3.58;;;5.90;91.20;;;;;;5034981;28;20029;-47
2022/12/30 01:51:23;;;;;;;16.90;3.83;;;6.00;91.40;;;;;;5029117;28;20448;-52
2022/12/30 01:53:55;;;;;;;17.30;3.80;;;5.90;91.40;;;;;;5014740;28;20363;-49
2022/12/30 01:56:34;;;;;;;15.45;3.45;;;5.90;91.40;;;;;;5015601;28;20029;-54
2022/12/30 01:59:20;;;;;;;17.17;5.10;;;5.90;91.50;;;;;;5055537;28;20366;-46
2022/12/30 02:01:51;;;;;;;19.55;4.40;;;5.90;91.50;;;;;;5034016;28;20048;-49
2022/12/30 02:04:21;;;;;;;17.85;4.88;;;5.90;91.60;;;;;;5041543;28;20110;-48
2022/12/30 02:06:55;;;;;;;22.30;4.28;;;5.90;91.50;;;;;;5017649;28;20368;-49
2022/12/30 02:09:25;;;;;;;19.40;3.83;;;5.80;91.50;;;;;;5035508;28;20385;-51
2022/12/30 02:11:55;;;;;;;21.58;4.22;;;5.80;91.70;;;;;;5024040;28;20119;-50
2022/12/30 02:14:22;;;;;;;;;;;5.80;91.60;;;;;;5035806;28;20099;-53
2022/12/30 02:17:05;;;;;;;13.27;3.20;;;5.90;91.70;;;;;;5034944;28;20322;-51
2022/12/30 02:20:14;;;;;;;11.40;3.45;;;5.80;91.60;;;;;;5034141;28;20025;-49
2022/12/30 02:23:24;;;;;;;19.50;4.07;;;5.80;91.60;;;;;;5032348;28;20029;-51
2022/12/30 02:26:10;;;;;;;18.60;3.75;;;5.80;91.70;;;;;;5019277;28;20090;-47
2022/12/30 02:29:13;;;;;;;14.93;4.78;;;5.70;91.80;;;;;;5015164;28;20463;-52
2022/12/30 02:31:55;;;;;;;18.35;4.22;;;5.70;91.70;;;;;;5016276;28;20037;-50
2022/12/30 02:34:45;;;;;;;20.92;6.28;;;5.70;91.90;;;;;;5024758;28;20025;-47
2022/12/30 02:37:29;;;;;;;;;;;5.70;92.10;;;;;;5023316;28;20037;-49
2022/12/30 02:40:12;;;;;;;14.05;3.72;;;5.80;92.10;;;;;;5026234;28;20227;-48
2022/12/30 02:45:58;;;;;;;15.85;3.85;;;5.90;92.20;;;;;;5023724;28;20096;-46
2022/12/30 02:48:31;;;;;;;19.20;3.85;;;5.90;92.10;;;;;;5027600;28;21671;-51
2022/12/30 02:53:45;;;;;;;18.55;3.88;;;6.00;92.00;;;;;;5028150;28;20028;-51
2022/12/30 02:56:12;;;;;;;24.75;4.13;;;6.00;92.00;;;;;;5048374;28;20026;-47
2022/12/30 02:58:46;;;;;;;17.95;5.50;;;6.00;91.80;;;;;;5013526;28;20030;-47
2022/12/30 03:04:28;;;;;;;20.38;4.28;;;6.00;91.60;;;;;;5018829;28;20060;-49
2022/12/30 03:07:14;;;;;;;17.67;3.65;;;5.90;91.50;;;;;;5032438;28;20128;-47
2022/12/30 03:11:12;;;;;;;18.15;3.65;;;5.90;91.50;;;;;;5032005;28;20371;-51
2022/12/30 03:12:47;;;;;;;14.90;3.45;;;5.90;91.40;;;;;;5023625;28;20048;-53
2022/12/30 03:15:22;;;;;;;16.63;4.03;;;5.80;91.40;;;;;;5032115;28;20106;-52
2022/12/30 03:17:49;;;;;;;17.48;3.85;;;5.80;91.50;;;;;;5012407;28;20037;-49
2022/12/30 03:20:23;;;;;;;17.42;3.92;;;5.80;91.50;;;;;;5028941;28;20049;-54
2022/12/30 03:28:28;;;;;;;23.10;5.32;;;5.80;91.50;;;;;;5018778;28;20048;-53
2022/12/30 03:31:00;;;;;;;28.38;5.20;;;5.80;91.50;;;;;;5013573;28;20448;-51
2022/12/30 03:33:29;;;;;;;17.38;3.90;;;5.80;91.50;;;;;;5045298;28;20037;-52
2022/12/30 03:36:29;;;;;;;17.92;3.90;;;5.70;91.40;;;;;;5053398;28;20029;-54
2022/12/30 03:39:16;;;;;;;19.35;3.67;;;5.80;91.50;;;;;;5035590;28;20044;-51
2022/12/30 03:41:46;;;;;;;20.88;4.38;;;5.80;91.50;;;;;;5031956;28;20093;-48
2022/12/30 03:44:14;;;;;;;18.45;3.45;;;5.80;91.40;;;;;;5016092;28;20108;-49
2022/12/30 03:46:43;;;;;;;16.25;3.80;;;5.80;91.20;;;;;;5032850;28;20032;-48
2022/12/30 03:49:11;;;;;;;13.32;3.78;;;5.80;91.30;;;;;;5032431;28;20163;-48
2022/12/30 03:51:37;;;;;;;14.40;2.78;;;5.70;91.10;;;;;;5031272;28;20029;-54
2022/12/30 03:54:08;;;;;;;20.02;3.67;;;5.60;91.20;;;;;;5052304;28;20036;-52
2022/12/30 03:56:34;;;;;;;15.00;3.17;;;5.60;91.30;;;;;;5051386;28;20033;-50
2022/12/30 03:59:01;;;;;;;21.58;3.65;;;5.60;91.20;;;;;;5031383;28;20041;-50
2022/12/30 04:01:28;;;;;;;23.65;3.80;;;5.50;91.30;;;;;;5031176;28;20354;-48
2022/12/30 04:03:55;;;;;;;10.27;3.60;;;5.50;91.40;;;;;;5030880;28;20053;-48
2022/12/30 04:06:21;;;;;;;17.70;4.00;;;5.50;91.50;;;;;;5033157;28;20442;-50
2022/12/30 04:08:48;;;;;;;18.02;4.13;;;5.50;91.50;;;;;;5037795;28;20036;-51
2022/12/30 04:11:15;;;;;;;20.45;4.10;;;5.40;91.50;;;;;;5052760;28;20048;-48
2022/12/30 04:13:42;;;;;;;23.73;4.07;;;5.40;91.60;;;;;;5031207;28;20056;-51
2022/12/30 04:16:09;;;;;;;12.80;3.70;;;5.40;91.70;;;;;;5033013;28;20033;-50
2022/12/30 04:18:36;;;;;;;20.77;3.58;;;5.40;91.80;;;;;;5033005;28;20029;-54
2022/12/30 04:21:02;;;;;;;18.05;4.38;;;5.40;91.70;;;;;;5043095;28;20025;-53
2022/12/30 04:23:31;;;;;;;16.80;3.85;;;5.40;91.90;;;;;;5034833;28;20116;-54
2022/12/30 04:25:58;;;;;;;14.02;3.38;;;5.40;91.90;;;;;;5033093;28;20108;-54
2022/12/30 04:28:25;;;;;;;13.80;4.03;;;5.30;91.90;;;;;;5020739;28;20037;-48
2022/12/30 04:30:52;;;;;;;19.00;3.88;;;5.30;91.80;;;;;;5013070;28;20042;-54
2022/12/30 04:33:21;;;;;;;11.23;3.95;;;5.30;91.90;;;;;;5026898;28;20045;-49
2022/12/30 04:35:48;;;;;;;13.98;3.38;;;5.20;92.00;;;;;;5047005;28;20029;-50
2022/12/30 04:38:15;;;;;;;22.08;3.80;;;5.20;92.00;;;;;;5051838;28;20052;-53
2022/12/30 04:40:41;;;;;;;15.98;3.58;;;5.20;92.10;;;;;;5052527;28;20331;-55
2022/12/30 04:43:08;;;;;;;19.08;4.28;;;5.20;92.10;;;;;;5036831;28;20091;-50
2022/12/30 04:45:33;;;;;;;22.20;3.92;;;5.10;92.20;;;;;;5031885;28;20339;-54
2022/12/30 04:48:00;;;;;;;16.63;4.10;;;5.10;92.20;;;;;;5032602;28;20038;-54
2022/12/30 04:50:27;;;;;;;25.05;3.88;;;5.10;92.30;;;;;;5031307;28;20048;-55
2022/12/30 04:52:53;;;;;;;20.38;3.85;;;5.10;92.20;;;;;;5038398;28;20060;-50
2022/12/30 04:55:20;;;;;;;24.63;4.78;;;5.00;92.20;;;;;;5051778;28;20397;-54
2022/12/30 04:57:47;;;;;;;12.70;2.92;;;5.00;92.30;;;;;;5025308;28;20034;-50
2022/12/30 05:00:18;;;;;;;16.00;3.70;;;5.00;92.40;;;;;;5035504;28;20346;-53
2022/12/30 05:02:45;;;;;;;20.52;3.75;;;5.00;92.40;;;;;;5032388;28;20064;-53
2022/12/30 05:05:13;;;;;;;17.73;3.53;;;5.00;92.50;;;;;;5021953;28;20053;-51
2022/12/30 05:07:40;;;;;;;11.10;3.35;;;5.00;92.50;;;;;;5012823;28;20042;-50
2022/12/30 05:10:07;;;;;;;17.00;3.83;;;5.00;92.50;;;;;;5032210;28;20029;-50
2022/12/30 05:12:33;;;;;;;19.10;4.68;;;5.00;92.50;;;;;;5044600;28;20084;-53
2022/12/30 05:15:04;;;;;;;18.73;3.55;;;5.00;92.50;;;;;;5017034;28;20051;-55
2022/12/30 05:17:31;;;;;;;23.92;4.28;;;4.90;92.50;;;;;;5025620;28;20044;-52
2022/12/30 05:19:58;;;;;;;15.18;3.85;;;4.90;92.50;;;;;;5036215;28;20033;-51
2022/12/30 05:22:24;;;;;;;18.38;3.92;;;4.90;92.50;;;;;;5033134;28;20021;-51
2022/12/30 05:27:35;;;;;;;20.02;5.00;;;4.90;92.60;;;;;;5040152;28;20048;-53
2022/12/30 05:30:02;;;;;;;19.58;5.00;;;4.90;92.60;;;;;;5016253;28;20458;-56
2022/12/30 05:32:29;;;;;;;18.58;4.25;;;4.90;92.50;;;;;;5020005;28;20029;-55
2022/12/30 05:34:57;;;;;;;13.15;3.42;;;4.80;92.60;;;;;;5029758;28;20029;-54
2022/12/30 05:37:24;;;;;;;16.25;5.40;;;4.90;92.70;;;;;;5024248;28;20446;-52
2022/12/30 05:39:51;;;;;;;10.88;3.78;;;4.80;92.70;;;;;;5025495;28;20036;-54
2022/12/30 05:42:18;;;;;;;16.08;3.97;;;4.80;92.70;;;;;;5024990;28;20068;-54
2022/12/30 05:44:45;;;;;;;15.95;4.50;;;4.70;92.70;;;;;;5025434;28;20426;-56
2022/12/30 05:47:13;;;;;;;16.13;4.03;;;4.70;92.70;;;;;;5026386;28;20101;-56
2022/12/30 05:49:40;;;;;;;18.65;4.97;;;4.70;92.70;;;;;;5025234;28;20034;-55
2022/12/30 05:52:05;;;;;;;17.08;4.88;;;4.70;92.70;;;;;;5026298;28;20029;-53
2022/12/30 05:54:32;;;;;;;16.05;4.25;;;4.70;92.80;;;;;;5025409;28;20327;-53
2022/12/30 05:56:59;;;;;;;20.90;7.35;;;4.70;92.90;;;;;;5027678;28;20033;-51
2022/12/30 05:59:25;;;;;;;17.38;5.28;;;4.70;93.00;;;;;;5033184;28;20048;-56
2022/12/30 06:01:52;;;;;;;17.98;5.68;;;4.70;92.90;;;;;;5048398;28;20033;-55
2022/12/30 06:04:19;;;;;;;14.82;5.60;;;4.70;92.90;;;;;;5039536;28;20477;-54
2022/12/30 06:06:46;;;;;;;15.40;5.38;;;4.70;92.90;;;;;;5024684;28;20032;-55
2022/12/30 06:09:13;;;;;;;18.67;5.50;;;4.70;93.00;;;;;;5027511;28;20032;-53
2022/12/30 06:11:40;;;;;;;23.30;6.50;;;4.60;93.00;;;;;;5047091;28;20354;-56
2022/12/30 06:14:09;;;;;;;15.63;7.20;;;4.70;93.10;;;;;;5037232;28;20091;-51
2022/12/30 06:16:35;;;;;;;22.05;6.55;;;4.70;93.20;;;;;;5023123;28;20450;-54
2022/12/30 06:19:06;;;;;;;20.92;6.80;;;4.70;93.20;;;;;;5034877;28;20033;-52
2022/12/30 06:21:33;;;;;;;22.83;6.50;;;4.70;93.20;;;;;;5033552;28;20048;-56
2022/12/30 06:24:00;;;;;;;22.65;5.90;;;4.70;93.30;;;;;;5032569;28;20033;-54
2022/12/30 06:26:27;;;;;;;16.77;5.97;;;4.70;93.20;;;;;;5015344;28;20395;-55
2022/12/30 06:28:54;;;;;;;12.48;6.13;;;4.70;93.20;;;;;;5018512;28;20428;-56
2022/12/30 06:31:23;;;;;;;15.63;5.70;;;4.70;93.30;;;;;;5029979;28;20451;-57
2022/12/30 06:33:50;;;;;;;13.90;5.28;;;4.70;93.20;;;;;;5036210;28;20416;-55
2022/12/30 06:36:17;;;;;;;18.98;5.70;;;4.70;93.20;;;;;;5026425;28;20034;-52
2022/12/30 06:38:44;;;;;;;22.63;5.70;;;4.70;93.30;;;;;;5013944;28;20033;-57
2022/12/30 06:41:10;;;;;;;16.98;7.10;;;4.70;93.30;;;;;;5018130;28;20087;-53
2022/12/30 06:43:36;;;;;;;27.05;5.80;;;4.70;93.40;;;;;;5028688;28;20423;-57
2022/12/30 06:46:03;;;;;;;12.98;5.07;;;4.70;93.40;;;;;;5023369;28;20145;-57
2022/12/30 06:48:30;;;;;;;14.38;6.07;;;4.70;93.40;;;;;;5022850;28;20459;-53
2022/12/30 06:51:00;;;;;;;16.00;5.18;;;4.80;93.30;;;;;;5023689;28;20044;-54
2022/12/30 06:53:30;;;;;;;16.30;4.45;;;4.70;93.40;;;;;;5026027;28;20034;-55
2022/12/30 06:55:58;;;;;;;13.68;5.45;;;4.70;93.30;;;;;;5022862;28;20039;-55
2022/12/30 06:58:26;;;;;;;13.57;6.25;;;4.70;93.30;;;;;;5024363;28;20037;-51
2022/12/30 07:00:53;;;;;;;24.33;5.30;;;4.70;93.20;;;;;;5023884;28;20358;-56
2022/12/30 07:03:19;;;;;;;18.65;4.60;;;4.60;93.20;;;;;;5025707;28;20025;-53
2022/12/30 07:05:46;;;;;;;12.05;4.43;;;4.60;93.20;;;;;;5024795;28;20427;-55
2022/12/30 07:08:11;;;;;;;17.67;5.68;;;4.60;93.10;;;;;;5022751;28;20034;-57
2022/12/30 07:10:37;;;;;;;12.95;4.82;;;4.60;93.10;;;;;;5025720;28;20428;-54
2022/12/30 07:13:04;;;;;;;14.73;5.10;;;4.50;93.20;;;;;;5024396;28;20065;-53
2022/12/30 07:15:31;;;;;;;13.98;5.25;;;4.50;93.20;;;;;;5024697;28;20057;-56
2022/12/30 07:17:58;;;;;;;10.95;4.47;;;4.50;93.20;;;;;;5024746;28;20040;-54
2022/12/30 07:20:24;;;;;;;16.33;5.00;;;4.50;93.20;;;;;;5022667;28;20024;-57
2022/12/30 07:22:51;;;;;;;12.55;4.15;;;4.40;93.20;;;;;;5023537;28;20041;-57
2022/12/30 07:25:18;;;;;;;15.60;5.03;;;4.40;93.30;;;;;;5023620;28;20447;-56
2022/12/30 07:27:45;;;;;;;18.70;4.55;;;4.40;93.40;;;;;;5023345;28;20034;-57
2022/12/30 07:30:12;;;;;;;20.70;5.75;;;4.40;93.40;;;;;;5022233;28;20025;-58
2022/12/30 07:32:39;;;;;;;16.80;4.75;;;4.40;93.30;;;;;;5018203;28;20034;-57
2022/12/30 07:35:07;;;;;;;14.50;3.90;;;4.40;93.40;;;;;;5048274;28;20029;-55
2022/12/30 07:37:35;;;;;;;27.73;6.25;;;4.40;93.40;;;;;;5053694;28;20025;-57
2022/12/30 07:40:02;;;;;;;18.85;5.78;;;4.40;93.40;;;;;;5032482;28;20030;-56
2022/12/30 07:42:32;;;;;;;18.98;5.88;;;4.40;93.30;;;;;;5023230;28;20431;-57
2022/12/30 07:44:59;;;;;;;;;;;4.40;93.40;;;;;;5013330;28;20392;-56
2022/12/30 07:47:25;;;;;;;16.90;4.55;;;4.40;93.40;;;;;;5014047;28;19906;-57
2022/12/30 07:49:52;;;;;;;22.13;4.47;;;4.40;93.40;;;;;;5022765;28;20026;-56
2022/12/30 07:52:19;;;;;;;11.30;4.60;;;4.40;93.50;;;;;;5033510;28;20032;-57
2022/12/30 07:54:48;;;;;;;13.93;4.68;;;4.30;93.50;;;;;;5024250;28;20156;-57
2022/12/30 07:57:14;;;;;;;12.93;4.15;;;4.40;93.50;;;;;;5021795;28;20036;-58
2022/12/30 07:59:43;;;;;;;18.90;4.75;;;4.40;93.50;;;;;;5022472;28;20367;-57
2022/12/30 08:02:11;;;;;;;11.75;3.92;;;4.40;93.50;;;;;;5022962;28;20382;-57
2022/12/30 08:04:38;;;;;;;13.77;3.70;;;4.40;93.60;;;;;;5024012;28;20577;-55
2022/12/30 08:07:07;;;;;;;16.80;4.35;;;4.40;93.60;;;;;;5021907;28;20022;-56
2022/12/30 08:09:36;;;;;;;14.35;3.97;;;4.40;93.60;;;;;;5021114;28;20022;-58
2022/12/30 08:12:03;;;;;;;17.48;4.63;;;4.40;93.60;;;;;;5021295;28;20105;-58
2022/12/30 08:14:29;;;;;;;12.75;3.75;;;4.50;93.60;;;;;;5008449;28;20037;-58
2022/12/30 08:16:55;;;;;;;15.30;4.82;;;4.70;93.80;;;;;;5026158;28;20435;-55
2022/12/30 08:19:24;;;;;;;19.60;4.60;;;4.60;93.50;;;;;;5024904;28;20044;-57
2022/12/30 08:21:50;;;;;;;17.92;4.95;;;4.70;93.50;;;;;;5028855;28;20171;-56
2022/12/30 08:24:19;;;;;;;11.20;3.50;;;4.70;93.50;;;;;;5031458;28;20104;-57
2022/12/30 08:26:47;;;;;;;13.68;4.80;;;4.70;93.50;;;;;;5022649;28;20168;-56
2022/12/30 08:29:14;;;;;;;21.67;4.40;;;4.80;93.30;;;;;;5020645;28;20090;-55
2022/12/30 08:31:49;;;;;;;13.95;4.50;;;4.70;93.20;;;;;;5018370;28;20345;-56
2022/12/30 08:34:17;;;;;;;24.00;4.95;;;4.80;93.20;;;;;;5030276;28;20168;-57
2022/12/30 08:36:44;;;;;;;15.45;4.93;;;4.80;93.20;;;;;;5022114;28;20352;-57
2022/12/30 08:39:10;;;;;;;13.32;3.78;;;4.80;93.20;;;;;;5015131;28;20022;-53
2022/12/30 08:41:40;;;;;;;15.27;4.72;;;4.90;93.10;;;;;;5029765;28;20017;-54
2022/12/30 08:44:07;;;;;;;;;;;4.90;93.00;;;;;;5020795;28;20042;-57
2022/12/30 08:46:35;;;;;;;12.48;4.05;;;4.90;93.00;;;;;;5021620;28;19920;-56
2022/12/30 08:49:02;;;;;;;12.77;3.05;;;4.90;93.00;;;;;;5024259;28;20036;-53
2022/12/30 08:51:30;;;;;;;13.15;3.47;;;4.90;92.90;;;;;;5022585;28;20041;-53
2022/12/30 08:53:57;;;;;;;17.85;3.47;;;4.90;92.80;;;;;;5031320;28;20026;-56
2022/12/30 08:56:27;;;;;;;15.85;3.90;;;4.90;92.80;;;;;;5022729;28;20104;-51
2022/12/30 08:58:55;;;;;;;16.23;4.53;;;4.90;92.80;;;;;;5022428;28;20025;-49
2022/12/30 09:01:27;;;;;;;17.08;6.18;;;4.90;92.90;;;;;;5009834;28;20061;-55
2022/12/30 09:03:54;;;;;;;11.57;4.13;;;5.00;92.90;;;;;;4985687;28;1183979;-53
2022/12/30 09:06:24;;;;;;;12.15;4.72;;;5.00;92.90;;;;;;5027653;28;20648;-55
2022/12/30 09:08:51;;;;;;;;;;;5.00;92.80;;;;;;5022667;28;20025;-56
2022/12/30 09:11:21;;;;;;;22.77;3.92;;;5.10;92.80;;;;;;5024818;28;19919;-55
2022/12/30 09:13:48;;;;;;;12.75;3.53;;;5.10;92.60;;;;;;5020873;28;20542;-52
2022/12/30 09:16:21;;;;;;;16.05;3.90;;;5.20;92.60;;;;;;5020396;28;20046;-49
2022/12/30 09:18:52;;;;;;;16.30;4.25;;;5.20;92.50;;;;;;5023493;28;20029;-54
2022/12/30 09:21:21;;;;;;;7.95;2.92;;;5.30;92.40;;;;;;5020000;28;20517;-54
2022/12/30 09:23:48;;;;;;;20.05;3.28;;;5.20;92.40;;;;;;5021722;28;20030;-51
2022/12/30 09:26:18;;;;;;;14.73;3.20;;;5.30;92.40;;;;;;5018242;28;20080;-55
2022/12/30 09:28:46;;;;;;;12.88;2.88;;;5.40;92.40;;;;;;5013959;28;20437;-50
2022/12/30 09:31:13;;;;;;;15.05;3.22;;;5.40;92.20;;;;;;5025855;28;20033;-49
2022/12/30 09:33:40;;;;;;;13.18;3.75;;;5.40;92.20;;;;;;5029736;28;20029;-53
2022/12/30 09:36:07;;;;;;;15.23;3.63;;;5.40;92.10;;;;;;5013600;28;20029;-51
2022/12/30 09:38:36;;;;;;;16.98;5.15;;;5.60;92.10;;;;;;5030596;28;20025;-52
2022/12/30 09:43:15;;;;;;;14.32;3.50;;;5.60;91.90;;;;;;5032068;28;20088;-49
2022/12/30 09:44:36;;;;;;;13.85;3.45;;;5.70;91.60;;;;;;5045629;28;20357;-52
2022/12/30 09:47:17;;;;;;;12.00;2.63;;;5.70;91.50;;;;;;5026115;28;20048;-48
2022/12/30 09:49:53;;;;;;;13.68;3.88;;;5.80;91.60;;;;;;5033820;28;20064;-47
2022/12/30 09:52:41;;;;;;;16.90;4.32;;;5.90;91.50;;;;;;5027677;28;20053;-51
2022/12/30 09:55:46;;;;;;;7.32;2.38;;;5.90;91.20;;;;;;5027506;28;20363;-50
2022/12/30 09:58:27;;;;;;;15.77;3.25;;;5.90;91.10;;;;;;5017146;28;20026;-49
2022/12/30 10:01:03;;;;;;;11.35;3.47;;;5.90;91.10;;;;;;5029123;28;20092;-48
2022/12/30 10:03:30;;;;;;;16.33;3.58;;;5.90;91.30;;;;;;5029676;28;20033;-50
2022/12/30 10:06:17;;;;;;;16.60;3.55;;;6.00;91.40;;;;;;5028576;28;20121;-48
2022/12/30 10:09:07;;;;;;;10.88;3.40;;;6.10;90.90;;;;;;5028664;28;20025;-48
2022/12/30 10:11:51;;;;;;;15.57;3.33;;;6.20;91.00;;;;;;5025404;28;20026;-46
2022/12/30 10:14:35;;;;;;;14.38;3.53;;;6.10;90.50;;;;;;5019405;28;20045;-50
2022/12/30 10:17:23;;;;;;;14.05;4.25;;;6.10;90.50;;;;;;5025474;28;20026;-44
2022/12/30 10:20:24;;;;;;;18.63;3.88;;;6.10;90.40;;;;;;5030866;28;20079;-44
2022/12/30 10:23:14;;;;;;;12.35;3.25;;;6.20;90.50;;;;;;5022474;28;20044;-45
2022/12/30 10:25:58;;;;;;;11.27;3.75;;;6.20;90.40;;;;;;5019227;28;20036;-45
2022/12/30 10:28:37;;;;;;;17.08;4.43;;;6.20;90.40;;;;;;5025587;28;20041;-47
2022/12/30 10:31:13;;;;;;;17.75;5.28;;;6.20;90.30;;;;;;5035133;28;20350;-48
2022/12/30 10:33:39;;;;;;;14.43;3.75;;;6.20;90.20;;;;;;5034880;28;20718;-45
2022/12/30 10:36:51;;;;;;;10.07;3.72;;;6.20;90.20;;;;;;5033669;28;20041;-44
2022/12/30 10:39:22;;;;;;;11.05;4.38;;;6.30;90.10;;;;;;5019026;28;20077;-43
2022/12/30 10:42:14;;;;;;;10.65;4.00;;;6.40;90.10;;;;;;5014746;28;20022;-44
2022/12/30 10:45:20;;;;;;;12.75;4.05;;;6.40;89.90;;;;;;5031829;28;20032;-45
2022/12/30 10:48:19;;;;;;;16.60;3.83;;;6.40;89.70;;;;;;5034585;28;20478;-43
2022/12/30 10:50:48;;;;;;;8.95;3.13;;;6.50;89.60;;;;;;5034757;28;20095;-47
2022/12/30 10:53:20;;;;;;;11.03;2.93;;;6.50;89.30;;;;;;5033482;28;20438;-42
2022/12/30 10:56:01;;;;;;;11.43;3.20;;;6.60;89.20;;;;;;5052951;28;20454;-44
2022/12/30 10:58:31;;;;;;;10.50;3.15;;;6.60;89.00;;;;;;5052874;28;20029;-47
2022/12/30 11:01:02;;;;;;;15.23;3.83;;;6.60;89.10;;;;;;5053388;28;20025;-45
2022/12/30 11:03:51;;;;;;;9.07;2.97;;;6.60;89.00;;;;;;5053309;28;20024;-48
2022/12/30 11:06:18;;;;;;;10.10;2.93;;;6.60;89.10;;;;;;5013545;28;20152;-48
2022/12/30 11:08:46;;;;;;;13.75;4.28;;;6.60;89.00;;;;;;5018124;28;20428;-46
2022/12/30 11:11:11;;;;;;;12.93;3.35;;;6.60;88.90;;;;;;5033746;28;20037;-49
2022/12/30 11:16:30;;;;;;;11.25;2.75;;;6.70;88.80;;;;;;5054181;28;20044;-44
2022/12/30 11:19:05;;;;;;;8.50;3.25;;;6.70;88.50;;;;;;5017479;28;20037;-45
2022/12/30 11:21:33;;;;;;;10.45;3.03;;;6.70;88.60;;;;;;5013227;28;20040;-46
2022/12/30 11:24:03;;;;;;;8.52;2.65;;;6.80;88.60;;;;;;5021017;28;20404;-47
2022/12/30 11:26:30;;;;;;;9.82;2.58;;;6.80;88.40;;;;;;5034093;28;20029;-47
2022/12/30 11:29:09;;;;;;;10.60;2.60;;;6.80;88.30;;;;;;5039061;28;20072;-43
2022/12/30 11:31:42;;;;;;;10.50;3.58;;;6.90;87.90;;;;;;5053638;28;20413;-45
2022/12/30 11:34:20;;;;;;;13.02;3.35;;;6.90;87.80;;;;;;5053972;28;20171;-46
2022/12/30 11:36:47;;;;;;;9.27;2.35;;;7.00;87.80;;;;;;5049934;28;20390;-48
2022/12/30 11:39:15;;;;;;;8.30;2.67;;;7.00;87.80;;;;;;5032460;28;20084;-45
2022/12/30 11:41:52;;;;;;;12.82;3.53;;;7.00;87.90;;;;;;5033508;28;20029;-45
2022/12/30 11:44:38;;;;;;;11.85;3.17;;;7.10;87.70;;;;;;5036366;28;20029;-47
2022/12/30 11:47:10;;;;;;;8.23;2.20;;;7.10;87.60;;;;;;5033470;28;20459;-44
2022/12/30 11:49:55;;;;;;;10.20;2.50;;;7.20;87.60;;;;;;5033100;28;20033;-45
2022/12/30 11:52:42;;;;;;;15.55;2.97;;;7.20;87.30;;;;;;5033507;28;20036;-47
2022/12/30 11:55:20;;;;;;;11.10;2.65;;;7.20;87.20;;;;;;5032679;28;20030;-47
2022/12/30 11:57:47;;;;;;;8.98;2.55;;;7.20;87.10;;;;;;5032506;28;20033;-47
2022/12/30 12:00:16;;;;;;;8.73;2.33;;;7.20;87.00;;;;;;5032663;28;20025;-46
2022/12/30 12:03:00;;;;;;;8.73;3.00;;;7.30;86.90;;;;;;5032315;28;20029;-46
2022/12/30 12:05:42;;;;;;;9.63;2.80;;;7.30;87.00;;;;;;5032777;28;20045;-47
2022/12/30 12:08:26;;;;;;;6.35;2.20;;;7.30;86.80;;;;;;5024266;28;20477;-47
2022/12/30 12:11:01;;;;;;;6.05;2.03;;;7.30;86.60;;;;;;5023647;28;20339;-49
2022/12/30 12:13:46;;;;;;;8.93;2.78;;;7.20;86.40;;;;;;5015196;28;20058;-49
2022/12/30 12:16:26;;;;;;;9.77;2.45;;;7.20;86.30;;;;;;5043814;28;20359;-49
2022/12/30 12:18:55;;;;;;;;;;;7.20;86.60;;;;;;5045159;28;20027;-46
2022/12/30 12:21:40;;;;;;;9.48;3.70;;;7.20;86.50;;;;;;5052512;28;19908;-46
2022/12/30 12:24:24;;;;;;;9.43;2.72;;;7.20;86.30;;;;;;5052857;28;20028;-48
2022/12/30 12:27:16;;;;;;;9.27;2.10;;;7.10;86.60;;;;;;5051474;28;20108;-45
2022/12/30 12:29:44;;;;;;;7.72;2.20;;;7.10;86.60;;;;;;5017429;28;20078;-51
2022/12/30 12:32:52;;;;;;;8.15;2.58;;;7.00;86.60;;;;;;5032115;28;20025;-48
2022/12/30 12:35:55;;;;;;;7.00;1.85;;;7.00;86.70;;;;;;5032933;28;20561;-51
2022/12/30 12:38:43;;;;;;;7.38;2.20;;;7.10;86.70;;;;;;5012937;28;20038;-49
2022/12/30 12:41:51;;;;;;;9.68;2.45;;;7.00;86.60;;;;;;5013075;28;20025;-47
2022/12/30 12:44:50;;;;;;;8.20;1.83;;;7.10;86.60;;;;;;5013671;28;20465;-46
2022/12/30 12:47:40;;;;;;;7.72;2.33;;;7.10;86.50;;;;;;4990905;28;20064;-48
2022/12/30 12:50:36;;;;;;;7.15;2.08;;;7.10;86.70;;;;;;5035882;28;20052;-48
2022/12/30 12:53:35;;;;;;;9.18;3.22;;;7.20;86.40;;;;;;5018218;28;20037;-50
2022/12/30 12:56:26;;;;;;;7.85;2.63;;;7.10;86.70;;;;;;5027519;28;20041;-48
2022/12/30 12:59:13;;;;;;;8.82;2.50;;;7.20;86.40;;;;;;5018083;28;20025;-50
2022/12/30 13:02:10;;;;;;;8.48;2.97;;;7.20;86.50;;;;;;5027343;28;20030;-50
2022/12/30 13:05:09;;;;;;;8.85;2.35;;;7.20;86.40;;;;;;5024850;28;20112;-50
2022/12/30 13:08:12;;;;;;;8.93;2.47;;;7.20;86.30;;;;;;5023216;28;20028;-52
2022/12/30 13:10:44;;;;;;;6.28;1.83;;;7.20;86.40;;;;;;5022313;28;20108;-50
2022/12/30 13:13:47;;;;;;;6.80;2.13;;;7.20;86.30;;;;;;5034654;28;20033;-52
2022/12/30 13:16:18;;;;;;;7.10;1.75;;;7.30;86.00;;;;;;5023752;28;20486;-48
2022/12/30 13:18:47;;;;;;;7.07;2.10;;;7.30;85.90;;;;;;5012956;28;20138;-48
2022/12/30 13:21:20;;;;;;;5.22;1.90;;;7.40;85.70;;;;;;5027866;28;20017;-51
2022/12/30 13:23:52;;;;;;;5.90;1.92;;;7.40;85.30;;;;;;5032983;28;20401;-48
2022/12/30 13:26:23;;;;;;;5.60;2.15;;;7.40;85.20;;;;;;5017146;28;20026;-49
2022/12/30 13:29:00;;;;;;;4.60;1.85;;;7.40;85.40;;;;;;5032058;28;20144;-48
2022/12/30 13:31:57;;;;;;;4.43;1.55;;;7.40;85.40;;;;;;5012572;28;20033;-52
2022/12/30 13:34:44;;;;;;;7.82;2.05;;;7.40;85.30;;;;;;5018533;28;20076;-46
2022/12/30 13:37:28;;;;;;;7.68;2.05;;;7.40;85.20;;;;;;5030187;28;20420;-50
2022/12/30 13:40:04;;;;;;;7.95;2.15;;;7.50;84.90;;;;;;5030839;28;20075;-47
2022/12/30 13:43:08;;;;;;;9.00;2.28;;;7.40;85.10;;;;;;5028631;28;20033;-50
2022/12/30 13:45:57;;;;;;;7.63;1.90;;;7.40;85.10;;;;;;5029137;28;20037;-49
2022/12/30 13:48:25;;;;;;;6.72;1.83;;;7.40;84.80;;;;;;5029468;28;20455;-52
2022/12/30 13:51:15;;;;;;;10.25;2.08;;;7.40;84.90;;;;;;5035904;28;20033;-48
2022/12/30 13:54:13;;;;;;;9.20;1.83;;;7.50;85.00;;;;;;5024559;28;20082;-53
2022/12/30 13:56:42;;;;;;;6.90;2.42;;;7.40;84.70;;;;;;5025828;28;20038;-53
2022/12/30 13:59:36;;;;;;;8.83;2.20;;;7.50;84.50;;;;;;5041500;28;20040;-50
2022/12/30 14:02:21;;;;;;;8.90;2.35;;;7.50;84.40;;;;;;5018073;28;20443;-52
2022/12/30 14:04:52;;;;;;;6.13;1.90;;;7.50;84.50;;;;;;5015568;28;20132;-50
2022/12/30 14:07:44;;;;;;;3.97;1.30;;;7.50;84.50;;;;;;5031499;28;20021;-51
2022/12/30 14:10:19;;;;;;;8.80;2.10;;;7.50;84.40;;;;;;5029564;28;20043;-48
2022/12/30 14:13:14;;;;;;;5.80;2.60;;;7.50;84.30;;;;;;5033915;28;20033;-53
2022/12/30 14:15:45;;;;;;;5.50;1.67;;;7.50;84.30;;;;;;5023343;28;20041;-52
2022/12/30 14:18:30;;;;;;;7.78;2.10;;;7.50;84.30;;;;;;5025218;28;20072;-53